createdAt,value
2019-02-14T00:01:12.994Z,13.30
2019-02-14T00:04:18.076Z,11.40
2019-02-14T00:07:23.244Z,11.23
2019-02-14T00:10:28.293Z,10.87
2019-02-14T00:13:33.339Z,12.30
2019-02-14T00:16:38.469Z,12.03
2019-02-14T00:19:43.520Z,11.87
2019-02-14T00:22:48.579Z,12.00
2019-02-14T00:25:53.540Z,12.17
2019-02-14T00:28:58.671Z,10.63
2019-02-14T00:32:03.795Z,12.60
2019-02-14T00:35:09.070Z,12.63
2019-02-14T00:38:14.050Z,14.37
2019-02-14T00:41:19.088Z,14.63
2019-02-14T00:44:24.056Z,14.33
2019-02-14T00:47:29.114Z,14.87
2019-02-14T00:50:34.151Z,13.83
2019-02-14T00:53:39.380Z,14.10
2019-02-14T00:56:44.415Z,14.60
2019-02-14T00:59:49.544Z,12.40
2019-02-14T01:02:54.535Z,12.47
2019-02-14T01:05:59.565Z,11.20
2019-02-14T01:09:05.703Z,12.20
2019-02-14T01:12:11.127Z,11.27
2019-02-14T01:15:17.836Z,12.17
2019-02-14T01:18:22.947Z,13.10
2019-02-14T01:21:28.049Z,12.10
2019-02-14T01:24:33.179Z,12.53
2019-02-14T01:27:38.147Z,11.90
2019-02-14T01:30:43.263Z,11.73
2019-02-14T01:33:48.305Z,11.00
2019-02-14T01:36:53.262Z,12.83
2019-02-14T01:39:58.385Z,11.50
2019-02-14T01:43:03.434Z,10.87
2019-02-14T01:46:08.458Z,10.93
2019-02-14T01:49:13.512Z,13.10
2019-02-14T01:52:18.553Z,10.67
2019-02-14T01:55:23.680Z,10.70
2019-02-14T01:58:28.739Z,11.00
2019-02-14T02:01:33.851Z,10.53
2019-02-14T02:04:38.815Z,9.90
2019-02-14T02:07:43.775Z,12.53
2019-02-14T02:10:48.819Z,10.40
2019-02-14T02:13:53.986Z,11.03
2019-02-14T02:16:58.923Z,10.50
2019-02-14T02:20:04.258Z,13.37
2019-02-14T02:23:09.310Z,12.93
2019-02-14T02:26:14.401Z,13.57
2019-02-14T02:29:19.368Z,11.77
2019-02-14T02:32:24.420Z,11.27
2019-02-14T02:35:29.454Z,13.17
2019-02-14T02:38:34.560Z,12.17
2019-02-14T02:41:39.604Z,13.67
2019-02-14T02:44:44.634Z,12.53
2019-02-14T02:47:49.670Z,13.13
2019-02-14T02:50:54.707Z,10.90
2019-02-14T02:53:59.762Z,13.03
2019-02-14T02:57:04.859Z,13.07
2019-02-14T03:00:13.181Z,13.10
2019-02-14T03:03:18.136Z,12.00
2019-02-14T03:06:23.163Z,10.80
2019-02-14T03:09:28.284Z,12.37
2019-02-14T03:12:33.456Z,12.87
2019-02-14T03:15:38.439Z,11.80
2019-02-14T03:18:43.479Z,11.57
2019-02-14T03:21:48.649Z,9.80
2019-02-14T03:24:53.619Z,10.47
2019-02-14T03:27:58.563Z,11.80
2019-02-14T03:31:03.619Z,10.53
2019-02-14T03:34:08.652Z,11.13
2019-02-14T03:37:13.671Z,10.87
2019-02-14T03:40:18.702Z,10.70
2019-02-14T03:43:23.787Z,11.70
2019-02-14T03:46:28.830Z,12.40
2019-02-14T03:49:33.808Z,14.00
2019-02-14T03:52:38.860Z,13.57
2019-02-14T03:55:44.319Z,13.20
2019-02-14T03:58:49.415Z,11.60
2019-02-14T04:01:54.543Z,12.70
2019-02-14T04:04:59.515Z,13.10
2019-02-14T04:08:04.665Z,13.70
2019-02-14T04:11:09.694Z,13.90
2019-02-14T04:14:14.753Z,17.40
2019-02-14T04:17:19.863Z,15.20
2019-02-14T04:20:24.983Z,10.90
2019-02-14T04:23:29.955Z,12.93
2019-02-14T04:26:34.995Z,13.73
2019-02-14T04:29:39.945Z,12.33
2019-02-14T04:32:45.008Z,14.17
2019-02-14T04:35:50.006Z,12.30
2019-02-14T04:38:54.983Z,11.43
2019-02-14T04:42:00.031Z,11.40
2019-02-14T04:45:05.552Z,11.17
2019-02-14T04:48:10.595Z,10.97
2019-02-14T04:51:15.720Z,12.03
2019-02-14T04:54:20.755Z,11.10
2019-02-14T04:57:25.723Z,11.47
2019-02-14T05:00:30.828Z,11.50
2019-02-14T05:03:35.876Z,11.67
2019-02-14T05:06:44.330Z,12.60
2019-02-14T05:09:47.661Z,12.80
2019-02-14T05:12:52.639Z,11.90
2019-02-14T05:15:57.631Z,12.13
2019-02-14T05:19:02.609Z,14.00
2019-02-14T05:22:07.743Z,15.30
2019-02-14T05:25:12.931Z,12.80
2019-02-14T05:28:17.979Z,11.30
2019-02-14T05:31:23.007Z,10.60
2019-02-14T05:34:28.127Z,11.60
2019-02-14T05:37:33.090Z,10.77
2019-02-14T05:40:38.132Z,11.77
2019-02-14T05:43:43.275Z,12.37
2019-02-14T05:46:48.392Z,11.57
2019-02-14T05:49:53.444Z,12.27
2019-02-14T05:52:58.568Z,10.20
2019-02-14T05:56:03.681Z,11.23
2019-02-14T05:59:08.656Z,12.10
2019-02-14T06:02:14.728Z,12.80
2019-02-14T06:05:19.696Z,10.47
2019-02-14T06:08:24.679Z,12.93
2019-02-14T06:11:29.712Z,11.20
2019-02-14T06:14:34.693Z,11.93
2019-02-14T06:17:39.823Z,11.90
2019-02-14T06:20:44.883Z,12.43
2019-02-14T06:23:49.860Z,14.80
2019-02-14T06:26:54.856Z,13.50
2019-02-14T06:29:59.882Z,12.30
2019-02-14T06:33:05.194Z,12.70
2019-02-14T06:36:10.176Z,12.80
2019-02-14T06:39:15.223Z,13.63
2019-02-14T06:42:20.210Z,13.43
2019-02-14T06:45:25.280Z,14.60
2019-02-14T06:48:30.339Z,13.83
2019-02-14T06:51:35.388Z,14.60
2019-02-14T06:54:40.435Z,15.07
2019-02-14T06:57:45.471Z,14.70
2019-02-14T07:00:50.507Z,13.90
2019-02-14T07:03:55.531Z,14.73
2019-02-14T07:07:00.634Z,14.67
2019-02-14T07:10:06.146Z,12.80
2019-02-14T07:13:11.222Z,12.70
2019-02-14T07:16:16.275Z,13.77
2019-02-14T07:19:21.405Z,13.87
2019-02-14T07:22:26.538Z,14.67
2019-02-14T07:25:31.650Z,14.20
2019-02-14T07:28:36.620Z,14.57
2019-02-14T07:31:41.730Z,13.47
2019-02-14T07:34:46.813Z,14.33
2019-02-14T07:37:51.858Z,16.70
2019-02-14T07:40:57.064Z,15.07
2019-02-14T07:44:02.247Z,14.23
2019-02-14T07:47:07.377Z,19.70
2019-02-14T07:50:12.525Z,15.40
2019-02-14T07:53:17.632Z,13.80
2019-02-14T07:56:22.654Z,13.37
2019-02-14T07:59:27.779Z,13.60
2019-02-14T08:02:32.907Z,13.07
2019-02-14T08:05:37.951Z,14.37
2019-02-14T08:08:44.221Z,14.77
2019-02-14T08:11:49.323Z,13.70
2019-02-14T08:14:54.387Z,13.13
2019-02-14T08:17:59.416Z,14.00
2019-02-14T08:21:04.464Z,13.00
2019-02-14T08:24:09.568Z,13.57
2019-02-14T08:27:14.624Z,13.33
2019-02-14T08:30:19.675Z,14.90
2019-02-14T08:33:24.724Z,15.43
2019-02-14T08:36:29.771Z,16.50
2019-02-14T08:39:35.856Z,14.97
2019-02-14T08:42:40.925Z,13.83
2019-02-14T08:45:46.034Z,14.60
2019-02-14T08:48:51.163Z,15.37
2019-02-14T08:51:56.480Z,16.40
2019-02-14T08:55:01.532Z,15.40
2019-02-14T08:58:06.648Z,16.57
2019-02-14T09:01:11.694Z,15.17
2019-02-14T09:04:16.655Z,16.33
2019-02-14T09:07:21.700Z,16.90
2019-02-14T09:10:26.824Z,14.73
2019-02-14T09:13:31.881Z,16.20
2019-02-14T09:16:36.852Z,15.70
2019-02-14T09:19:41.989Z,15.40
2019-02-14T09:22:47.025Z,16.43
2019-02-14T09:25:52.076Z,14.80
2019-02-14T09:28:57.051Z,15.50
2019-02-14T09:32:02.101Z,16.30
2019-02-14T09:35:07.451Z,14.63
2019-02-14T09:38:12.555Z,15.30
2019-02-14T09:41:17.685Z,15.07
2019-02-14T09:44:22.750Z,16.00
2019-02-14T09:47:27.936Z,15.70
2019-02-14T09:50:33.102Z,16.00
2019-02-14T09:53:38.233Z,16.70
2019-02-14T09:56:43.290Z,15.27
2019-02-14T09:59:48.265Z,17.13
2019-02-14T10:02:53.306Z,16.90
2019-02-14T10:05:58.442Z,15.33
2019-02-14T10:09:05.750Z,15.43
2019-02-14T10:12:10.980Z,16.10
2019-02-14T10:15:16.232Z,16.57
2019-02-14T10:18:21.335Z,16.43
2019-02-14T10:21:26.459Z,18.60
2019-02-14T10:24:31.562Z,17.87
2019-02-14T10:27:36.675Z,15.90
2019-02-14T10:30:41.776Z,17.97
2019-02-14T10:33:46.819Z,17.20
2019-02-14T10:36:51.867Z,16.17
2019-02-14T10:39:56.901Z,16.33
2019-02-14T10:43:01.867Z,16.77
2019-02-14T10:46:06.963Z,16.20
2019-02-14T10:49:12.171Z,16.93
2019-02-14T10:52:17.209Z,16.60
2019-02-14T10:55:22.334Z,16.20
2019-02-14T10:58:27.458Z,15.47
2019-02-14T11:01:32.516Z,16.50
2019-02-14T11:04:37.647Z,16.40
2019-02-14T11:07:42.785Z,17.00
2019-02-14T11:10:47.975Z,16.33
2019-02-14T11:13:53.030Z,15.73
2019-02-14T11:16:58.156Z,15.03
2019-02-14T11:20:03.267Z,15.03
2019-02-14T11:23:08.347Z,15.77
2019-02-14T11:26:13.581Z,17.80
2019-02-14T11:29:18.723Z,18.50
2019-02-14T11:32:23.756Z,17.10
2019-02-14T11:35:28.870Z,18.77
2019-02-14T11:38:40.379Z,18.07
2019-02-14T11:41:40.688Z,18.00
2019-02-14T11:44:45.834Z,20.03
2019-02-14T11:47:50.966Z,18.60
2019-02-14T11:50:56.024Z,21.13
2019-02-14T11:54:01.055Z,20.30
2019-02-14T11:57:06.035Z,20.67
2019-02-14T12:00:14.689Z,20.83
2019-02-14T12:03:19.671Z,19.30
2019-02-14T12:06:24.710Z,17.07
2019-02-14T12:09:29.777Z,20.00
2019-02-14T12:12:34.831Z,19.80
2019-02-14T12:15:39.803Z,19.10
2019-02-14T12:18:44.863Z,18.10
2019-02-14T12:21:49.902Z,20.30
2019-02-14T12:24:57.702Z,20.07
2019-02-14T12:28:02.800Z,19.43
2019-02-14T12:31:07.814Z,19.53
2019-02-14T12:34:12.919Z,17.77
2019-02-14T12:37:19.988Z,16.40
2019-02-14T12:40:25.103Z,18.87
2019-02-14T12:43:30.140Z,17.67
2019-02-14T12:46:35.232Z,17.23
2019-02-14T12:49:40.344Z,15.80
2019-02-14T12:52:45.319Z,17.37
2019-02-14T12:55:50.458Z,15.50
2019-02-14T12:58:55.525Z,16.20
2019-02-14T13:02:00.503Z,18.57
2019-02-14T13:05:06.238Z,18.30
2019-02-14T13:08:11.293Z,18.40
2019-02-14T13:11:16.431Z,17.90
2019-02-14T13:14:21.487Z,18.60
2019-02-14T13:17:26.552Z,17.47
2019-02-14T13:20:31.533Z,17.70
2019-02-14T13:23:36.702Z,16.00
2019-02-14T13:26:41.691Z,17.90
2019-02-14T13:29:46.727Z,17.17
2019-02-14T13:32:51.848Z,16.73
2019-02-14T13:35:57.045Z,17.73
2019-02-14T13:39:02.149Z,18.77
2019-02-14T13:42:07.364Z,17.27
2019-02-14T13:45:13.956Z,17.87
2019-02-14T13:48:18.924Z,17.30
2019-02-14T13:51:23.996Z,18.90
2019-02-14T13:54:28.967Z,18.90
2019-02-14T13:57:34.092Z,16.20
2019-02-14T14:00:39.054Z,16.80
2019-02-14T14:03:44.096Z,15.57
2019-02-14T14:06:49.052Z,16.30
2019-02-14T14:09:54.039Z,18.40
2019-02-14T14:12:59.157Z,15.60
2019-02-14T14:16:04.200Z,14.90
2019-02-14T14:19:10.071Z,15.37
2019-02-14T14:22:15.121Z,15.03
2019-02-14T14:25:20.193Z,15.40
2019-02-14T14:28:25.215Z,14.80
2019-02-14T14:31:30.313Z,15.03
2019-02-14T14:34:35.346Z,16.50
2019-02-14T14:37:40.485Z,16.00
2019-02-14T14:40:45.533Z,14.80
2019-02-14T14:44:08.040Z,14.93
2019-02-14T14:47:18.540Z,14.43
2019-02-14T14:50:23.644Z,14.40
2019-02-14T14:53:30.733Z,8.47
2019-02-14T14:56:35.690Z,10.13
2019-02-14T14:59:40.712Z,8.83
2019-02-14T15:02:45.697Z,11.13
2019-02-14T15:05:50.808Z,10.53
2019-02-14T15:08:55.889Z,11.23
2019-02-14T15:12:00.881Z,14.17
2019-02-14T15:15:06.156Z,12.07
2019-02-14T15:18:11.192Z,13.90
2019-02-14T15:21:16.161Z,15.53
2019-02-14T15:24:21.235Z,14.77
2019-02-14T15:27:26.280Z,16.17
2019-02-14T15:30:31.259Z,13.60
2019-02-14T15:33:36.249Z,15.20
2019-02-14T15:36:41.298Z,15.20
2019-02-14T15:39:46.326Z,12.33
2019-02-14T15:42:51.372Z,11.93
2019-02-14T15:45:56.319Z,11.60
2019-02-14T15:49:01.351Z,11.33
2019-02-14T15:52:07.737Z,12.60
2019-02-14T15:55:12.893Z,11.90
2019-02-14T15:58:17.939Z,12.27
2019-02-14T16:01:22.892Z,13.67
2019-02-14T16:04:28.908Z,12.97
2019-02-14T16:07:36.844Z,14.60
2019-02-14T16:10:41.588Z,12.43
2019-02-14T16:13:46.625Z,12.37
2019-02-14T16:16:51.616Z,10.63
2019-02-14T16:19:57.642Z,12.67
2019-02-14T16:23:04.202Z,14.30
2019-02-14T16:26:10.179Z,12.90
2019-02-14T16:29:15.211Z,13.63
2019-02-14T16:32:20.196Z,12.40
2019-02-14T16:35:25.152Z,11.23
2019-02-14T16:38:30.204Z,13.40
2019-02-14T16:41:35.263Z,11.20
2019-02-14T16:44:40.224Z,14.50
2019-02-14T16:47:45.186Z,15.73
2019-02-14T16:50:50.316Z,15.93
2019-02-14T16:53:55.332Z,15.40
2019-02-14T16:57:00.442Z,13.53
2019-02-14T17:00:06.670Z,15.17
2019-02-14T17:03:11.652Z,16.30
2019-02-14T17:06:16.697Z,19.90
2019-02-14T17:09:21.845Z,17.77
2019-02-14T17:12:27.433Z,19.70
2019-02-14T17:15:32.553Z,43.47
2019-02-14T17:18:37.534Z,41.80
2019-02-14T17:21:42.598Z,26.30
2019-02-14T17:24:47.560Z,21.60
2019-02-14T17:27:52.544Z,27.20
2019-02-14T17:30:57.591Z,29.33
2019-02-14T17:34:02.623Z,27.73
2019-02-14T17:37:07.668Z,24.77
2019-02-14T17:40:12.763Z,27.77
2019-02-14T17:43:17.888Z,59.77
2019-02-14T17:46:22.855Z,34.50
2019-02-14T17:49:27.906Z,27.77
2019-02-14T17:52:32.931Z,28.50
2019-02-14T17:55:39.377Z,26.97
2019-02-14T17:58:44.465Z,27.70
2019-02-14T18:01:49.756Z,34.10
2019-02-14T18:04:54.760Z,28.77
2019-02-14T18:07:59.747Z,27.20
2019-02-14T18:11:04.804Z,28.33
2019-02-14T18:14:09.862Z,29.03
2019-02-14T18:17:14.832Z,31.37
2019-02-14T18:20:19.876Z,29.60
2019-02-14T18:23:24.996Z,36.40
2019-02-14T18:26:30.087Z,30.10
2019-02-14T18:29:35.225Z,37.80
2019-02-14T18:32:40.320Z,38.80
2019-02-14T18:35:45.636Z,35.37
2019-02-14T18:38:50.676Z,32.40
2019-02-14T18:41:55.802Z,46.57
2019-02-14T18:45:00.838Z,38.67
2019-02-14T18:48:05.956Z,25.67
2019-02-14T18:51:11.167Z,20.10
2019-02-14T18:54:16.212Z,23.47
2019-02-14T18:57:21.295Z,25.07
2019-02-14T19:00:26.316Z,22.80
2019-02-14T19:03:31.500Z,23.73
2019-02-14T19:06:36.521Z,23.57
2019-02-14T19:09:41.574Z,22.03
2019-02-14T19:12:46.713Z,27.13
2019-02-14T19:15:51.675Z,27.60
2019-02-14T19:18:58.664Z,28.50
2019-02-14T19:22:03.472Z,27.70
2019-02-14T19:25:08.592Z,23.17
2019-02-14T19:28:13.717Z,27.73
2019-02-14T19:31:18.784Z,29.43
2019-02-14T19:34:23.821Z,29.27
2019-02-14T19:37:28.956Z,24.83
2019-02-14T19:40:33.972Z,21.87
2019-02-14T19:43:39.100Z,19.80
2019-02-14T19:46:44.248Z,20.50
2019-02-14T19:49:49.373Z,19.30
2019-02-14T19:52:54.358Z,18.50
2019-02-14T19:55:59.408Z,18.90
2019-02-14T19:59:04.458Z,23.13
2019-02-14T20:02:09.579Z,23.20
2019-02-14T20:05:14.646Z,23.07
2019-02-14T20:08:19.701Z,26.50
2019-02-14T20:11:24.761Z,27.57
2019-02-14T20:14:29.808Z,25.47
2019-02-14T20:17:34.869Z,25.77
2019-02-14T20:20:39.935Z,23.27
2019-02-14T20:23:45.043Z,26.10
2019-02-14T20:26:50.015Z,23.87
2019-02-14T20:29:55.044Z,23.13
2019-02-14T20:33:04.765Z,23.60
2019-02-14T20:36:06.755Z,26.47
2019-02-14T20:39:11.972Z,22.00
2019-02-14T20:42:17.159Z,24.80
2019-02-14T20:45:22.376Z,23.20
2019-02-14T20:48:27.444Z,22.50
2019-02-14T20:51:38.567Z,25.43
2019-02-14T20:54:39.389Z,30.10
2019-02-14T20:57:45.100Z,42.97
2019-02-14T21:00:50.351Z,29.10
2019-02-14T21:03:55.393Z,28.93
2019-02-14T21:07:00.439Z,25.50
2019-02-14T21:10:05.597Z,23.50
2019-02-14T21:13:10.660Z,24.00
2019-02-14T21:16:15.824Z,21.97
2019-02-14T21:19:21.037Z,22.60
2019-02-14T21:22:26.262Z,22.93
2019-02-14T21:25:31.480Z,22.00
2019-02-14T21:28:36.564Z,23.90
2019-02-14T21:31:41.951Z,23.43
2019-02-14T21:34:46.982Z,23.70
2019-02-14T21:37:52.164Z,23.80
2019-02-14T21:40:57.363Z,24.57
2019-02-14T21:44:02.483Z,21.43
2019-02-14T21:47:07.677Z,23.00
2019-02-14T21:50:12.953Z,21.57
2019-02-14T21:53:18.067Z,22.37
2019-02-14T21:56:23.097Z,22.80
2019-02-14T21:59:28.235Z,23.27
2019-02-14T22:02:33.345Z,25.17
2019-02-14T22:05:38.483Z,26.10
2019-02-14T22:08:43.646Z,24.13
2019-02-14T22:11:48.709Z,22.23
2019-02-14T22:14:55.808Z,24.20
2019-02-14T22:18:00.944Z,25.33
2019-02-14T22:21:06.074Z,24.87
2019-02-14T22:24:12.501Z,22.17
2019-02-14T22:27:17.679Z,23.77
2019-02-14T22:30:22.803Z,22.87
2019-02-14T22:33:27.860Z,21.93
2019-02-14T22:36:32.941Z,22.13
2019-02-14T22:39:37.987Z,21.57
2019-02-14T22:42:46.983Z,22.07
2019-02-14T22:45:49.885Z,19.97
2019-02-14T22:48:55.018Z,19.47
2019-02-14T22:51:59.975Z,19.80
2019-02-14T22:55:05.301Z,21.40
2019-02-14T22:58:10.276Z,20.13
2019-02-14T23:01:15.574Z,18.27
2019-02-14T23:04:20.551Z,18.60
2019-02-14T23:07:25.684Z,17.37
2019-02-14T23:10:30.814Z,17.40
2019-02-14T23:13:35.959Z,18.87
2019-02-14T23:16:41.103Z,17.70
2019-02-14T23:19:46.242Z,18.50
2019-02-14T23:22:51.275Z,17.60
2019-02-14T23:25:56.269Z,17.23
2019-02-14T23:29:01.329Z,17.70
2019-02-14T23:32:06.300Z,15.87
2019-02-14T23:35:11.422Z,16.30
2019-02-14T23:38:16.396Z,17.63
2019-02-14T23:41:21.354Z,15.50
2019-02-14T23:44:27.067Z,16.83
2019-02-14T23:47:32.059Z,16.73
2019-02-14T23:50:37.105Z,16.80
2019-02-14T23:53:42.163Z,18.37
2019-02-14T23:56:47.280Z,18.00
2019-02-14T23:59:52.340Z,20.23
